Language: 


Des rapports , des résumés tant et plus, au choix de chacun....


Données statistiques de la station
Quotidien Rapport Mars 28, 2017 Unités:  Métrique    Anglais   les deux
« Précédent Jour
Suivant Jour »
Quotidien Hebdomadaire Mensuel Annuel Actuel
  Haut: Bas: Moyen:
Température: 21.4 °C 0.0 °C 11 °C
Pt de rosée: 9.2 °C 1.2 °C 5.5 °C
Humidité: 93 % 0 % 69 %
Vitesse du vent: 30.2 km/h 0.0 km/h 6.9 km/h
Rafales: 37.0 km/h - -
Vent:- - WSW
Pression: 1022.9 hPa 0.0 hPa -
Précipitation: 0.0 mm    
Historical Graphs
 
 
Données statistiques pour Mars 28, 2017
Heure Température Point de rosée Pression Vent Vitesse du vent Refales Humidité Pluie (taux horaire)
00:05 7.7 °C 2.5 °C 1019.9 hPa Calm     70 % 0.0 mm
00:10 7.7 °C 2.5 °C 1018.8 hPa Calm     70 % 0.0 mm
00:15 7.7 °C 2.7 °C 1018.8 hPa Calm     71 % 0.0 mm
00:20 7.6 °C 2.6 °C 1018.8 hPa Calm     71 % 0.0 mm
00:25 7.3 °C 2.2 °C 1018.8 hPa Calm     70 % 0.0 mm
00:30 7.3 °C 2.3 °C 1018.8 hPa Calm     71 % 0.0 mm
00:35 7.2 °C 2.4 °C 1018.8 hPa Calm     72 % 0.0 mm
00:40 6.9 °C 2.4 °C 1018.8 hPa NNE 3.5 km/h 4.3 km/h 73 % 0.0 mm
00:45 6.9 °C 2.4 °C 1018.8 hPa Calm   4.3 km/h 73 % 0.0 mm
00:50 6.9 °C 2.4 °C 1018.8 hPa Calm   2.6 km/h 73 % 0.0 mm
00:55 6.8 °C 2.3 °C 1018.2 hPa Calm     73 % 0.0 mm
01:00 6.7 °C 2.6 °C 1018.2 hPa Calm     75 % 0.0 mm
01:05 6.7 °C 2.6 °C 1018.2 hPa Calm     75 % 0.0 mm
01:10 6.6 °C 2.4 °C 1018.2 hPa Calm   4.3 km/h 75 % 0.0 mm
01:15 6.6 °C 2.6 °C 1018.2 hPa Calm   5.0 km/h 76 % 0.0 mm
01:20 6.7 °C 2.7 °C 1018.2 hPa Calm   5.0 km/h 76 % 0.0 mm
01:25 6.8 °C 3.0 °C 1018.8 hPa Calm   5.5 km/h 77 % 0.0 mm
01:30 6.8 °C 3.1 °C 1018.8 hPa Calm   5.5 km/h 77 % 0.0 mm
01:35 6.8 °C 2.9 °C 1018.8 hPa Calm   3.2 km/h 76 % 0.0 mm
01:40 6.8 °C 3.0 °C 1018.8 hPa Calm     77 % 0.0 mm
01:45 6.6 °C 2.6 °C 1018.8 hPa Calm     76 % 0.0 mm
01:50 6.3 °C 2.3 °C 1018.8 hPa Calm     76 % 0.0 mm
01:55 6.2 °C 2.3 °C 1018.2 hPa Calm     76 % 0.0 mm
02:00 5.9 °C 1.9 °C 1018.2 hPa Calm     76 % 0.0 mm
02:05 5.6 °C 1.9 °C 1018.2 hPa Calm     77 % 0.0 mm
02:10 5.5 °C 1.8 °C 1018.8 hPa Calm     77 % 0.0 mm
02:15 5.3 °C 1.6 °C 1018.8 hPa Calm     77 % 0.0 mm
02:20 5.0 °C 1.3 °C 1018.8 hPa Calm     77 % 0.0 mm
02:25 5.0 °C 1.3 °C 1018.8 hPa Calm     77 % 0.0 mm
02:30 5.0 °C 1.5 °C 1018.8 hPa Calm     78 % 0.0 mm
02:35 5.0 °C 1.7 °C 1018.8 hPa Calm     79 % 0.0 mm
02:40 5.0 °C 1.8 °C 1018.8 hPa Calm     80 % 0.0 mm
02:45 4.8 °C 1.8 °C 1018.8 hPa Calm     81 % 0.0 mm
02:50 4.7 °C 1.7 °C 1018.8 hPa Calm     81 % 0.0 mm
02:55 4.7 °C 1.7 °C 1018.2 hPa Calm     81 % 0.0 mm
03:02 0.0 °C 2.0 °C 0.0 hPa Calm     0 % 0.0 mm
03:07 0.0 °C 1.9 °C 0.0 hPa Calm     0 % 0.0 mm
03:12 4.6 °C 1.9 °C 1018.2 hPa Calm     83 % 0.0 mm
03:17 4.6 °C 1.9 °C 1018.2 hPa Calm     83 % 0.0 mm
03:22 4.6 °C 1.9 °C 1018.2 hPa Calm     83 % 0.0 mm
03:27 4.6 °C 1.9 °C 1018.8 hPa Calm     83 % 0.0 mm
03:32 4.6 °C 2.1 °C 1018.8 hPa Calm     84 % 0.0 mm
03:37 4.5 °C 2.1 °C 1018.8 hPa Calm     84 % 0.0 mm
03:42 4.4 °C 1.9 °C 1018.8 hPa Calm     84 % 0.0 mm
03:47 4.4 °C 1.9 °C 1018.8 hPa Calm     84 % 0.0 mm
03:52 4.4 °C 1.9 °C 1018.8 hPa Calm     84 % 0.0 mm
03:57 4.4 °C 2.1 °C 1018.8 hPa Calm     85 % 0.0 mm
04:02 4.3 °C 2.0 °C 1018.8 hPa Calm     85 % 0.0 mm
04:07 4.3 °C 2.0 °C 1018.8 hPa Calm     85 % 0.0 mm
04:12 4.4 °C 2.1 °C 1018.8 hPa Calm     85 % 0.0 mm
04:17 4.3 °C 2.2 °C 1018.8 hPa Calm     86 % 0.0 mm
04:22 4.2 °C 2.1 °C 1018.8 hPa Calm     86 % 0.0 mm
04:27 4.0 °C 1.7 °C 1018.8 hPa Calm     85 % 0.0 mm
04:32 3.8 °C 1.7 °C 1018.8 hPa Calm     86 % 0.0 mm
04:37 3.7 °C 1.6 °C 1018.8 hPa Calm     86 % 0.0 mm
04:42 3.6 °C 1.5 °C 1018.8 hPa Calm     86 % 0.0 mm
04:47 3.6 °C 1.4 °C 1018.8 hPa Calm     86 % 0.0 mm
04:52 3.7 °C 1.6 °C 1018.8 hPa Calm     86 % 0.0 mm
04:57 3.7 °C 1.8 °C 1018.8 hPa Calm     87 % 0.0 mm
05:02 3.8 °C 1.8 °C 1018.8 hPa Calm     87 % 0.0 mm
05:07 3.8 °C 1.8 °C 1018.8 hPa Calm     87 % 0.0 mm
05:12 3.9 °C 1.9 °C 1018.8 hPa Calm     87 % 0.0 mm
05:17 3.9 °C 1.9 °C 1018.8 hPa Calm     87 % 0.0 mm
05:22 3.8 °C 2.0 °C 1018.8 hPa Calm     88 % 0.0 mm
05:27 3.8 °C 2.0 °C 1018.8 hPa Calm     88 % 0.0 mm
05:32 3.8 °C 2.0 °C 1018.8 hPa Calm     88 % 0.0 mm
05:37 3.7 °C 1.9 °C 1018.8 hPa Calm     88 % 0.0 mm
05:42 3.6 °C 1.7 °C 1018.8 hPa Calm     88 % 0.0 mm
05:47 3.3 °C 1.4 °C 1018.8 hPa Calm     87 % 0.0 mm
05:52 3.1 °C 1.2 °C 1018.8 hPa Calm     87 % 0.0 mm
05:57 3.2 °C 1.3 °C 1018.8 hPa Calm     87 % 0.0 mm
06:02 3.2 °C 1.4 °C 1018.8 hPa Calm     88 % 0.0 mm
06:07 3.2 °C 1.4 °C 1018.8 hPa Calm   2.6 km/h 88 % 0.0 mm
06:12 3.1 °C 1.3 °C 1018.8 hPa Calm   2.6 km/h 88 % 0.0 mm
06:17 3.2 °C 1.6 °C 1018.8 hPa Calm     89 % 0.0 mm
06:22 3.2 °C 1.6 °C 1018.8 hPa Calm     89 % 0.0 mm
06:27 3.1 °C 1.5 °C 1018.8 hPa Calm     89 % 0.0 mm
06:32 3.1 °C 1.4 °C 1018.8 hPa Calm     89 % 0.0 mm
06:37 2.9 °C 1.3 °C 1018.8 hPa Calm     89 % 0.0 mm
06:42 3.1 °C 1.4 °C 1018.8 hPa Calm   2.6 km/h 89 % 0.0 mm
06:47 3.1 °C 1.5 °C 1018.8 hPa Calm   2.6 km/h 89 % 0.0 mm
06:52 3.1 °C 1.5 °C 1018.8 hPa Calm   1.4 km/h 89 % 0.0 mm
06:58 3.1 °C 1.5 °C 1018.8 hPa Calm   1.4 km/h 89 % 0.0 mm
07:03 3.1 °C 1.5 °C 1018.8 hPa Calm     89 % 0.0 mm
07:08 3.1 °C 1.6 °C 1018.8 hPa Calm     90 % 0.0 mm
07:13 3.1 °C 1.7 °C 1018.8 hPa Calm     90 % 0.0 mm
07:18 3.1 °C 1.7 °C 1018.8 hPa Calm   3.5 km/h 90 % 0.0 mm
07:23 3.2 °C 1.8 °C 1018.8 hPa Calm   3.5 km/h 90 % 0.0 mm
07:28 3.1 °C 1.7 °C 1018.8 hPa Calm     90 % 0.0 mm
07:33 3.1 °C 1.7 °C 1018.8 hPa Calm     90 % 0.0 mm
07:38 3.1 °C 1.7 °C 1018.8 hPa Calm     90 % 0.0 mm
07:43 3.2 °C 1.9 °C 1018.8 hPa Calm     91 % 0.0 mm
07:48 3.2 °C 1.9 °C 1018.8 hPa Calm     91 % 0.0 mm
07:53 3.3 °C 2.2 °C 1018.8 hPa Calm     92 % 0.0 mm
07:58 3.6 °C 2.3 °C 1018.8 hPa Calm     92 % 0.0 mm
08:03 3.6 °C 2.4 °C 1018.8 hPa Calm   1.4 km/h 92 % 0.0 mm
08:08 3.7 °C 2.7 °C 1018.2 hPa Calm   3.2 km/h 93 % 0.0 mm
12:43 0.0 °C 8.8 °C 0.0 hPa West 9.0 km/h 11.9 km/h 0 % 0.0 mm
12:48 19.7 °C 8.4 °C 1020.9 hPa SSW 8.7 km/h 16.9 km/h 48 % 0.0 mm
12:53 20.1 °C 8.4 °C 1020.9 hPa SW 10.1 km/h 16.9 km/h 47 % 0.0 mm
12:58 20.4 °C 9.0 °C 1020.9 hPa SW 7.9 km/h 12.2 km/h 48 % 0.0 mm
13:03 20.8 °C 8.7 °C 1020.9 hPa SW 7.9 km/h 12.2 km/h 46 % 0.0 mm
13:08 20.9 °C 8.9 °C 1020.9 hPa WSW 9.3 km/h 10.1 km/h 46 % 0.0 mm
13:13 20.9 °C 8.8 °C 1020.9 hPa WSW 11.6 km/h 13.7 km/h 46 % 0.0 mm
13:14 20.9 °C 8.8 °C 1020.9 hPa WSW 11.9 km/h 16.9 km/h 46 % 0.0 mm
13:19 0.0 °C 8.1 °C 0.0 hPa WSW 17.2 km/h 17.2 km/h 0 % 0.0 mm
13:24 20.6 °C 8.2 °C 1020.9 hPa WSW 16.3 km/h 17.2 km/h 45 % 0.0 mm
13:29 20.7 °C 8.3 °C 1020.9 hPa WSW 16.6 km/h 20.9 km/h 45 % 0.0 mm
13:34 20.6 °C 8.2 °C 1020.9 hPa SW 14.0 km/h 22.4 km/h 45 % 0.0 mm
13:39 20.9 °C 8.2 °C 1020.9 hPa SSW 12.2 km/h 22.4 km/h 44 % 0.0 mm
13:44 20.9 °C 8.2 °C 1020.9 hPa WSW 12.6 km/h 20.9 km/h 44 % 0.0 mm
13:49 21.3 °C 8.5 °C 1020.9 hPa SW 6.9 km/h 20.9 km/h 44 % 0.0 mm
13:54 21.2 °C 8.4 °C 1020.9 hPa SW 9.7 km/h 20.1 km/h 44 % 0.0 mm
13:59 21.1 °C 8.3 °C 1020.9 hPa WSW 12.6 km/h 20.1 km/h 44 % 0.0 mm
14:04 21.2 °C 8.4 °C 1020.9 hPa SSW 9.7 km/h 19.8 km/h 44 % 0.0 mm
14:09 21.4 °C 8.7 °C 1020.9 hPa West 9.7 km/h 17.2 km/h 44 % 0.0 mm
14:14 21.1 °C 8.3 °C 1020.9 hPa WSW 19.8 km/h 19.8 km/h 44 % 0.0 mm
14:19 20.9 °C 8.2 °C 1020.9 hPa WSW 18.0 km/h 20.9 km/h 44 % 0.0 mm
14:24 21.1 °C 8.3 °C 1020.9 hPa SSW 20.1 km/h 20.9 km/h 44 % 0.0 mm
14:29 21.3 °C 8.2 °C 1020.9 hPa WSW 11.9 km/h 18.0 km/h 43 % 0.0 mm
14:34 21.4 °C 8.3 °C 1020.9 hPa SW 10.1 km/h 20.1 km/h 43 % 0.0 mm
14:39 21.4 °C 8.3 °C 0.0 hPa WSW 19.1 km/h 20.3 km/h 43 % 0.0 mm
14:44 21.2 °C 8.1 °C 1019.9 hPa WSW 16.9 km/h 23.3 km/h 43 % 0.0 mm
14:49 21.2 °C 8.1 °C 1019.9 hPa WSW 11.6 km/h 23.3 km/h 43 % 0.0 mm
14:54 20.9 °C 7.9 °C 1019.9 hPa WSW 16.9 km/h 23.3 km/h 43 % 0.0 mm
14:59 20.9 °C 7.9 °C 1019.9 hPa WSW 17.2 km/h 24.8 km/h 43 % 0.0 mm
15:04 20.9 °C 7.9 °C 1019.9 hPa WSW 12.2 km/h 23.8 km/h 43 % 0.0 mm
15:09 21.3 °C 8.2 °C 1019.9 hPa WSW 19.5 km/h 23.8 km/h 43 % 0.0 mm
15:14 20.9 °C 7.9 °C 1019.9 hPa WSW 19.1 km/h 25.3 km/h 43 % 0.0 mm
15:19 20.5 °C 7.4 °C 1019.9 hPa West 15.8 km/h 22.7 km/h 43 % 0.0 mm
15:24 0.0 °C 6.8 °C 0.0 hPa WSW 20.6 km/h 20.6 km/h 0 % 0.0 mm
15:29 19.5 °C 6.9 °C 1019.9 hPa WSW 11.9 km/h 23.8 km/h 44 % 0.0 mm
15:34 19.3 °C 6.7 °C 1019.9 hPa WSW 14.3 km/h 20.6 km/h 44 % 0.0 mm
15:39 19.3 °C 7.1 °C 1019.9 hPa WSW 17.2 km/h 20.9 km/h 45 % 0.0 mm
15:44 19.1 °C 6.9 °C 1019.9 hPa West 11.6 km/h 20.9 km/h 45 % 0.0 mm
15:49 18.9 °C 7.1 °C 1019.9 hPa SW 13.0 km/h 20.1 km/h 46 % 0.0 mm
15:54 18.9 °C 7.1 °C 1019.9 hPa WSW 13.0 km/h 20.1 km/h 46 % 0.0 mm
15:59 18.9 °C 7.3 °C 1019.9 hPa West 13.0 km/h 20.1 km/h 47 % 0.0 mm
16:04 19.4 °C 8.1 °C 1019.9 hPa WSW 23.8 km/h 23.8 km/h 48 % 0.0 mm
16:09 19.5 °C 7.9 °C 1020.9 hPa WSW 10.5 km/h 23.8 km/h 47 % 0.0 mm
16:14 19.5 °C 7.9 °C 1020.9 hPa West 16.6 km/h 20.1 km/h 47 % 0.0 mm
16:19 19.7 °C 8.1 °C 1020.9 hPa West 12.6 km/h 23.3 km/h 47 % 0.0 mm
16:24 19.8 °C 8.4 °C 1019.9 hPa WSW 15.8 km/h 23.3 km/h 48 % 0.0 mm
16:29 19.2 °C 7.9 °C 1019.9 hPa West 10.1 km/h 19.8 km/h 48 % 0.0 mm
16:34 19.4 °C 8.4 °C 1019.9 hPa West 7.9 km/h 19.8 km/h 49 % 0.0 mm
16:39 19.1 °C 7.8 °C 1020.9 hPa SW 13.7 km/h 17.2 km/h 48 % 0.0 mm
16:44 19.3 °C 8.0 °C 1020.9 hPa West 24.8 km/h 24.8 km/h 48 % 0.0 mm
16:49 19.5 °C 8.2 °C 1020.9 hPa WSW 20.1 km/h 27.7 km/h 48 % 0.0 mm
16:54 18.9 °C 7.9 °C 1020.9 hPa West 20.6 km/h 32.0 km/h 49 % 0.0 mm
16:59 18.7 °C 8.4 °C 1020.9 hPa West 17.7 km/h 35.2 km/h 51 % 0.0 mm
17:04 18.6 °C 8.6 °C 1020.9 hPa West 24.5 km/h 35.2 km/h 52 % 0.0 mm
17:09 18.4 °C 8.7 °C 1020.9 hPa West 19.8 km/h 30.2 km/h 53 % 0.0 mm
17:14 17.9 °C 7.9 °C 1020.9 hPa WSW 27.7 km/h 35.2 km/h 52 % 0.0 mm
17:19 17.3 °C 7.9 °C 1020.9 hPa West 24.5 km/h 37.0 km/h 54 % 0.0 mm
17:24 16.9 °C 8.1 °C 1020.9 hPa West 28.8 km/h 37.0 km/h 56 % 0.0 mm
17:29 17.4 °C 8.8 °C 1020.9 hPa WSW 23.3 km/h 31.7 km/h 57 % 0.0 mm
17:34 17.2 °C 8.9 °C 1020.9 hPa WSW 15.8 km/h 31.7 km/h 58 % 0.0 mm
17:39 16.8 °C 8.9 °C 1020.9 hPa West 19.1 km/h 31.7 km/h 60 % 0.0 mm
17:44 16.9 °C 9.1 °C 1020.9 hPa WSW 16.3 km/h 31.7 km/h 60 % 0.0 mm
17:49 17.1 °C 9.2 °C 1020.9 hPa WSW 30.2 km/h 30.9 km/h 60 % 0.0 mm
17:54 17.1 °C 8.4 °C 1020.9 hPa West 20.9 km/h 30.2 km/h 57 % 0.0 mm
17:59 16.7 °C 8.3 °C 1020.9 hPa WSW 24.8 km/h 25.9 km/h 58 % 0.0 mm
18:04 16.2 °C 8.4 °C 1020.9 hPa WSW 20.1 km/h 25.9 km/h 60 % 0.0 mm
18:09 16.1 °C 8.6 °C 1020.9 hPa WSW 16.3 km/h 25.9 km/h 61 % 0.0 mm
18:14 15.9 °C 8.4 °C 1020.9 hPa WSW 14.0 km/h 22.4 km/h 61 % 0.0 mm
18:19 15.8 °C 8.3 °C 1020.9 hPa WSW 15.8 km/h 22.4 km/h 61 % 0.0 mm
18:24 16.1 °C 8.8 °C 1020.9 hPa WSW 19.8 km/h 23.0 km/h 62 % 0.0 mm
18:29 16.4 °C 9.1 °C 1020.9 hPa WSW 20.6 km/h 28.0 km/h 62 % 0.0 mm
18:34 16.6 °C 9.0 °C 1020.9 hPa West 17.2 km/h 28.5 km/h 61 % 0.0 mm
18:39 16.7 °C 8.8 °C 1020.9 hPa West 16.6 km/h 28.5 km/h 60 % 0.0 mm
18:44 16.4 °C 8.6 °C 1020.9 hPa West 16.6 km/h 27.7 km/h 60 % 0.0 mm
18:49 16.2 °C 8.2 °C 1020.9 hPa West 16.3 km/h 27.4 km/h 59 % 0.0 mm
18:55 16.2 °C 8.4 °C 1020.9 hPa WSW 14.0 km/h 27.4 km/h 60 % 0.0 mm
18:59 15.6 °C 8.3 °C 1020.9 hPa WSW 27.4 km/h 27.4 km/h 62 % 0.0 mm
19:05 15.4 °C 8.1 °C 1020.9 hPa WSW 19.8 km/h 28.5 km/h 62 % 0.0 mm
19:10 15.1 °C 8.1 °C 1020.9 hPa West 10.5 km/h 28.5 km/h 63 % 0.0 mm
19:15 14.8 °C 8.3 °C 1020.9 hPa West 15.4 km/h 20.9 km/h 65 % 0.0 mm
19:20 14.6 °C 8.3 °C 1020.9 hPa WSW 14.0 km/h 20.9 km/h 66 % 0.0 mm
19:25 14.5 °C 8.4 °C 1020.9 hPa SW 11.9 km/h 20.9 km/h 67 % 0.0 mm
19:30 14.4 °C 8.6 °C 1020.9 hPa West 16.9 km/h 23.3 km/h 68 % 0.0 mm
19:35 14.2 °C 8.4 °C 1020.9 hPa WSW 11.9 km/h 23.3 km/h 68 % 0.0 mm
19:40 14.1 °C 8.3 °C 1020.9 hPa West 16.6 km/h 20.9 km/h 68 % 0.0 mm
19:45 14.0 °C 8.4 °C 1020.9 hPa WSW 17.7 km/h 20.9 km/h 69 % 0.0 mm
19:50 13.9 °C 8.3 °C 1020.9 hPa WSW 15.4 km/h 20.9 km/h 69 % 0.0 mm
19:55 13.7 °C 8.1 °C 1021.9 hPa WSW 16.6 km/h 19.8 km/h 69 % 0.0 mm
20:00 13.7 °C 8.1 °C 1021.9 hPa WSW 12.2 km/h 20.6 km/h 69 % 0.0 mm
20:05 13.6 °C 8.2 °C 1021.9 hPa WSW 10.1 km/h 20.6 km/h 70 % 0.0 mm
20:10 13.4 °C 8.1 °C 1021.9 hPa West 9.7 km/h 16.9 km/h 70 % 0.0 mm
20:15 13.3 °C 7.9 °C 1021.9 hPa West 12.6 km/h 16.6 km/h 70 % 0.0 mm
20:20 13.2 °C 8.1 °C 1021.9 hPa West 11.9 km/h 15.4 km/h 71 % 0.0 mm
20:25 13.1 °C 7.9 °C 1021.9 hPa West 8.7 km/h 13.7 km/h 71 % 0.0 mm
20:30 12.8 °C 7.7 °C 1021.9 hPa WSW 6.9 km/h 12.2 km/h 71 % 0.0 mm
20:35 12.6 °C 7.4 °C 1021.9 hPa West 7.6 km/h 9.7 km/h 71 % 0.0 mm
20:40 12.2 °C 7.3 °C 1021.9 hPa Calm   7.6 km/h 72 % 0.0 mm
20:45 12.1 °C 7.2 °C 1021.9 hPa WSW 10.5 km/h 10.5 km/h 72 % 0.0 mm
20:50 11.9 °C 7.1 °C 1021.9 hPa Calm   10.5 km/h 72 % 0.0 mm
20:55 11.8 °C 7.2 °C 1021.9 hPa Calm   9.7 km/h 73 % 0.0 mm
21:00 11.8 °C 7.3 °C 1021.9 hPa WSW 9.7 km/h 11.6 km/h 74 % 0.0 mm
21:05 11.6 °C 7.3 °C 1021.9 hPa WSW 9.0 km/h 11.6 km/h 75 % 0.0 mm
21:10 11.4 °C 7.2 °C 1022.9 hPa WSW 9.0 km/h 10.1 km/h 75 % 0.0 mm
21:15 11.2 °C 6.9 °C 1022.9 hPa WSW 5.8 km/h 10.1 km/h 75 % 0.0 mm
21:20 10.9 °C 6.6 °C 1022.9 hPa Calm   9.0 km/h 75 % 0.0 mm
21:25 10.7 °C 6.6 °C 1022.9 hPa Calm   5.0 km/h 76 % 0.0 mm
21:30 10.5 °C 6.4 °C 1022.9 hPa Calm   6.4 km/h 76 % 0.0 mm
21:35 10.3 °C 6.4 °C 1022.9 hPa Calm   6.4 km/h 77 % 0.0 mm
21:40 10.2 °C 6.3 °C 1022.9 hPa Calm     77 % 0.0 mm
21:45 10.2 °C 6.5 °C 1022.9 hPa Calm     78 % 0.0 mm
21:50 10.2 °C 6.7 °C 1022.9 hPa Calm   2.1 km/h 79 % 0.0 mm
21:55 10.2 °C 6.9 °C 1022.9 hPa Calm   5.8 km/h 80 % 0.0 mm
22:00 10.5 °C 7.4 °C 1022.9 hPa SW 6.1 km/h 8.7 km/h 81 % 0.0 mm
22:05 10.7 °C 7.9 °C 1022.9 hPa SW 6.4 km/h 8.7 km/h 83 % 0.0 mm
22:10 11.0 °C 8.2 °C 1022.9 hPa Calm   9.0 km/h 83 % 0.0 mm
22:15 11.1 °C 8.3 °C 1022.9 hPa SSW 6.4 km/h 9.7 km/h 83 % 0.0 mm
22:20 11.2 °C 8.4 °C 1022.9 hPa Calm   9.7 km/h 83 % 0.0 mm
22:26 11.3 °C 8.5 °C 1022.9 hPa Calm   6.4 km/h 83 % 0.0 mm
22:31 11.4 °C 8.6 °C 1022.9 hPa Calm   9.0 km/h 83 % 0.0 mm
22:36 11.4 °C 8.7 °C 1022.9 hPa WSW 6.9 km/h 9.3 km/h 83 % 0.0 mm
22:41 11.6 °C 8.8 °C 1022.9 hPa SW 4.7 km/h 10.1 km/h 83 % 0.0 mm
22:46 11.7 °C 8.9 °C 1022.9 hPa SW 9.0 km/h 10.1 km/h 83 % 0.0 mm
22:51 11.8 °C 8.8 °C 1022.9 hPa SW 9.0 km/h 11.6 km/h 82 % 0.0 mm
22:56 11.8 °C 8.8 °C 1022.9 hPa Calm   11.6 km/h 82 % 0.0 mm
23:01 11.8 °C 8.8 °C 1022.9 hPa Calm   12.6 km/h 82 % 0.0 mm
23:06 11.7 °C 8.7 °C 1022.9 hPa Calm   12.6 km/h 82 % 0.0 mm
23:11 11.6 °C 8.6 °C 1022.9 hPa Calm   10.5 km/h 82 % 0.0 mm
23:16 11.6 °C 8.6 °C 1022.9 hPa SSW 6.9 km/h 10.5 km/h 82 % 0.0 mm
23:21 11.4 °C 8.5 °C 1022.9 hPa SSW 6.1 km/h 10.1 km/h 82 % 0.0 mm
23:26 11.3 °C 8.1 °C 1022.9 hPa SW 6.9 km/h 9.3 km/h 81 % 0.0 mm
23:31 11.1 °C 7.9 °C 1022.9 hPa Calm   9.3 km/h 81 % 0.0 mm
23:36 11.0 °C 8.0 °C 1022.9 hPa SW 5.0 km/h 9.3 km/h 82 % 0.0 mm
23:41 10.9 °C 7.9 °C 1022.9 hPa Calm   9.3 km/h 82 % 0.0 mm
23:46 10.7 °C 7.7 °C 1022.9 hPa Calm   6.9 km/h 82 % 0.0 mm
23:51 10.6 °C 7.6 °C 1022.9 hPa WSW 4.7 km/h 5.0 km/h 82 % 0.0 mm
23:56 10.5 °C 7.6 °C 1021.9 hPa Calm   5.0 km/h 82 % 0.0 mm
Le Gheer Warneton
Courtoisie de Weather Underground - 2 mb

Mise a jour : 18/12/2017 17:36:12
Généré par Cumulus 1.9.4 (1099)